sensor_id;sensor_type;location;lat;lon;timestamp;pressure;altitude;pressure_sealevel;temperature
66403;BMP180;53212;52.112;5.144;2023-08-17T00:00:05;102148.20;;;18.20
66403;BMP180;53212;52.112;5.144;2023-08-17T00:02:35;102147.80;;;18.18
66403;BMP180;53212;52.112;5.144;2023-08-17T00:05:00;102148.60;;;18.10
66403;BMP180;53212;52.112;5.144;2023-08-17T00:07:26;102146.20;;;18.10
66403;BMP180;53212;52.112;5.144;2023-08-17T00:09:51;102146.60;;;18.12
66403;BMP180;53212;52.112;5.144;2023-08-17T00:12:17;102147.80;;;18.10
66403;BMP180;53212;52.112;5.144;2023-08-17T00:14:42;102144.40;;;18.04
66403;BMP180;53212;52.112;5.144;2023-08-17T00:17:08;102147.80;;;18.00
66403;BMP180;53212;52.112;5.144;2023-08-17T00:19:33;102142.00;;;18.00
66403;BMP180;53212;52.112;5.144;2023-08-17T00:21:58;102141.20;;;18.00
66403;BMP180;53212;52.112;5.144;2023-08-17T00:24:24;102142.40;;;18.00
66403;BMP180;53212;52.112;5.144;2023-08-17T00:26:50;102142.40;;;17.90
66403;BMP180;53212;52.112;5.144;2023-08-17T00:29:15;102135.40;;;17.90
66403;BMP180;53212;52.112;5.144;2023-08-17T00:31:41;102135.60;;;17.90
66403;BMP180;53212;52.112;5.144;2023-08-17T00:34:07;102134.40;;;17.80
66403;BMP180;53212;52.112;5.144;2023-08-17T00:36:32;102129.80;;;17.80
66403;BMP180;53212;52.112;5.144;2023-08-17T00:38:57;102127.80;;;17.80
66403;BMP180;53212;52.112;5.144;2023-08-17T00:41:23;102122.60;;;17.80
66403;BMP180;53212;52.112;5.144;2023-08-17T00:43:48;102129.40;;;17.80
66403;BMP180;53212;52.112;5.144;2023-08-17T00:46:14;102127.60;;;17.78
66403;BMP180;53212;52.112;5.144;2023-08-17T00:48:41;102128.60;;;17.74
66403;BMP180;53212;52.112;5.144;2023-08-17T00:51:08;102134.60;;;17.70
66403;BMP180;53212;52.112;5.144;2023-08-17T00:53:33;102128.00;;;17.70
66403;BMP180;53212;52.112;5.144;2023-08-17T00:56:01;102129.80;;;17.70
66403;BMP180;53212;52.112;5.144;2023-08-17T00:58:27;102129.00;;;17.70
66403;BMP180;53212;52.112;5.144;2023-08-17T01:00:53;102129.00;;;17.62
66403;BMP180;53212;52.112;5.144;2023-08-17T01:03:20;102129.80;;;17.60
66403;BMP180;53212;52.112;5.144;2023-08-17T01:05:47;102127.40;;;17.60
66403;BMP180;53212;52.112;5.144;2023-08-17T01:08:13;102129.00;;;17.50
66403;BMP180;53212;52.112;5.144;2023-08-17T01:11:22;102125.40;;;17.50
66403;BMP180;53212;52.112;5.144;2023-08-17T01:17:03;102120.40;;;17.40
66403;BMP180;53212;52.112;5.144;2023-08-17T01:19:29;102116.00;;;17.40
66403;BMP180;53212;52.112;5.144;2023-08-17T01:22:05;102119.00;;;17.40
66403;BMP180;53212;52.112;5.144;2023-08-17T01:24:33;102113.40;;;17.30
66403;BMP180;53212;52.112;5.144;2023-08-17T01:26:59;102109.20;;;17.20
66403;BMP180;53212;52.112;5.144;2023-08-17T01:29:25;102109.60;;;17.10
66403;BMP180;53212;52.112;5.144;2023-08-17T01:32:15;102111.40;;;17.10
66403;BMP180;53212;52.112;5.144;2023-08-17T01:34:48;102111.20;;;17.10
66403;BMP180;53212;52.112;5.144;2023-08-17T01:37:18;102114.40;;;17.00
66403;BMP180;53212;52.112;5.144;2023-08-17T01:39:49;102111.80;;;17.00
66403;BMP180;53212;52.112;5.144;2023-08-17T01:42:17;102113.20;;;17.02
66403;BMP180;53212;52.112;5.144;2023-08-17T01:44:43;102113.00;;;17.00
66403;BMP180;53212;52.112;5.144;2023-08-17T01:47:08;102122.60;;;17.00
66403;BMP180;53212;52.112;5.144;2023-08-17T01:49:34;102118.60;;;17.00
66403;BMP180;53212;52.112;5.144;2023-08-17T01:52:00;102119.60;;;17.00
66403;BMP180;53212;52.112;5.144;2023-08-17T01:54:26;102109.60;;;17.00
66403;BMP180;53212;52.112;5.144;2023-08-17T01:56:51;102104.80;;;17.00
66403;BMP180;53212;52.112;5.144;2023-08-17T01:59:17;102107.60;;;17.02
66403;BMP180;53212;52.112;5.144;2023-08-17T02:01:42;102102.20;;;17.00
66403;BMP180;53212;52.112;5.144;2023-08-17T02:04:08;102099.60;;;17.00
66403;BMP180;53212;52.112;5.144;2023-08-17T02:06:33;102102.40;;;17.00
66403;BMP180;53212;52.112;5.144;2023-08-17T02:08:59;102107.00;;;17.00
66403;BMP180;53212;52.112;5.144;2023-08-17T02:11:24;102108.40;;;17.00
66403;BMP180;53212;52.112;5.144;2023-08-17T02:13:50;102106.40;;;17.00
66403;BMP180;53212;52.112;5.144;2023-08-17T02:16:15;102100.80;;;17.00
66403;BMP180;53212;52.112;5.144;2023-08-17T02:18:41;102105.40;;;17.00
66403;BMP180;53212;52.112;5.144;2023-08-17T02:21:06;102101.40;;;17.00
66403;BMP180;53212;52.112;5.144;2023-08-17T02:23:32;102106.60;;;17.00
66403;BMP180;53212;52.112;5.144;2023-08-17T02:25:57;102105.60;;;17.00
66403;BMP180;53212;52.112;5.144;2023-08-17T02:28:23;102102.00;;;17.00
66403;BMP180;53212;52.112;5.144;2023-08-17T02:30:48;102103.40;;;17.02
66403;BMP180;53212;52.112;5.144;2023-08-17T02:33:14;102103.60;;;17.02
66403;BMP180;53212;52.112;5.144;2023-08-17T02:35:39;102096.00;;;17.00
66403;BMP180;53212;52.112;5.144;2023-08-17T02:38:05;102099.20;;;17.00
66403;BMP180;53212;52.112;5.144;2023-08-17T02:40:30;102097.20;;;16.96
66403;BMP180;53212;52.112;5.144;2023-08-17T02:42:56;102098.40;;;16.90
66403;BMP180;53212;52.112;5.144;2023-08-17T02:45:21;102097.60;;;16.90
66403;BMP180;53212;52.112;5.144;2023-08-17T02:47:47;102090.40;;;16.90
66403;BMP180;53212;52.112;5.144;2023-08-17T02:50:13;102087.80;;;16.96
66403;BMP180;53212;52.112;5.144;2023-08-17T02:52:38;102083.40;;;17.00
66403;BMP180;53212;52.112;5.144;2023-08-17T02:55:04;102086.80;;;17.00
66403;BMP180;53212;52.112;5.144;2023-08-17T02:57:30;102085.60;;;17.00
66403;BMP180;53212;52.112;5.144;2023-08-17T02:59:56;102082.40;;;17.00
66403;BMP180;53212;52.112;5.144;2023-08-17T03:02:22;102087.60;;;17.00
66403;BMP180;53212;52.112;5.144;2023-08-17T03:04:47;102087.20;;;17.00
66403;BMP180;53212;52.112;5.144;2023-08-17T03:07:12;102086.60;;;17.00
66403;BMP180;53212;52.112;5.144;2023-08-17T03:09:38;102085.00;;;17.00
66403;BMP180;53212;52.112;5.144;2023-08-17T03:12:04;102084.20;;;17.02
66403;BMP180;53212;52.112;5.144;2023-08-17T03:14:29;102080.60;;;17.04
66403;BMP180;53212;52.112;5.144;2023-08-17T03:16:55;102078.60;;;17.08
66403;BMP180;53212;52.112;5.144;2023-08-17T03:19:20;102082.80;;;17.04
66403;BMP180;53212;52.112;5.144;2023-08-17T03:21:46;102084.60;;;17.10
66403;BMP180;53212;52.112;5.144;2023-08-17T03:24:11;102088.40;;;17.10
66403;BMP180;53212;52.112;5.144;2023-08-17T03:26:36;102087.40;;;17.06
66403;BMP180;53212;52.112;5.144;2023-08-17T03:29:02;102089.40;;;17.00
66403;BMP180;53212;52.112;5.144;2023-08-17T03:31:27;102089.00;;;17.00
66403;BMP180;53212;52.112;5.144;2023-08-17T03:33:53;102087.00;;;17.00
66403;BMP180;53212;52.112;5.144;2023-08-17T03:36:20;102086.00;;;17.00
66403;BMP180;53212;52.112;5.144;2023-08-17T03:38:45;102086.60;;;17.00
66403;BMP180;53212;52.112;5.144;2023-08-17T03:41:11;102086.40;;;17.00
66403;BMP180;53212;52.112;5.144;2023-08-17T03:43:36;102076.20;;;17.00
66403;BMP180;53212;52.112;5.144;2023-08-17T03:46:04;102077.60;;;16.98
66403;BMP180;53212;52.112;5.144;2023-08-17T03:48:29;102080.00;;;16.90
66403;BMP180;53212;52.112;5.144;2023-08-17T03:50:55;102078.40;;;16.90
66403;BMP180;53212;52.112;5.144;2023-08-17T03:53:21;102073.40;;;16.90
66403;BMP180;53212;52.112;5.144;2023-08-17T03:55:50;102071.40;;;16.90
66403;BMP180;53212;52.112;5.144;2023-08-17T03:58:18;102069.00;;;16.90
66403;BMP180;53212;52.112;5.144;2023-08-17T04:00:54;102074.60;;;16.90
66403;BMP180;53212;52.112;5.144;2023-08-17T04:03:20;102078.00;;;16.90
66403;BMP180;53212;52.112;5.144;2023-08-17T04:05:45;102081.00;;;16.90
66403;BMP180;53212;52.112;5.144;2023-08-17T04:08:11;102084.40;;;16.90
66403;BMP180;53212;52.112;5.144;2023-08-17T04:10:36;102085.20;;;16.90
66403;BMP180;53212;52.112;5.144;2023-08-17T04:13:02;102083.20;;;16.90
66403;BMP180;53212;52.112;5.144;2023-08-17T04:15:28;102086.00;;;16.90
66403;BMP180;53212;52.112;5.144;2023-08-17T04:17:54;102081.00;;;16.88
66403;BMP180;53212;52.112;5.144;2023-08-17T04:20:19;102080.20;;;16.90
66403;BMP180;53212;52.112;5.144;2023-08-17T04:22:45;102080.80;;;16.82
66403;BMP180;53212;52.112;5.144;2023-08-17T04:25:10;102078.80;;;16.80
66403;BMP180;53212;52.112;5.144;2023-08-17T04:27:36;102075.20;;;16.80
66403;BMP180;53212;52.112;5.144;2023-08-17T04:30:01;102078.40;;;16.80
66403;BMP180;53212;52.112;5.144;2023-08-17T04:32:27;102076.00;;;16.80
66403;BMP180;53212;52.112;5.144;2023-08-17T04:34:53;102073.80;;;16.80
66403;BMP180;53212;52.112;5.144;2023-08-17T04:37:18;102075.00;;;16.80
66403;BMP180;53212;52.112;5.144;2023-08-17T04:39:43;102070.60;;;16.80
66403;BMP180;53212;52.112;5.144;2023-08-17T04:42:09;102070.40;;;16.78
66403;BMP180;53212;52.112;5.144;2023-08-17T04:44:35;102075.20;;;16.70
66403;BMP180;53212;52.112;5.144;2023-08-17T04:47:01;102075.40;;;16.70
66403;BMP180;53212;52.112;5.144;2023-08-17T04:49:27;102072.60;;;16.70
66403;BMP180;53212;52.112;5.144;2023-08-17T04:51:53;102071.60;;;16.70
66403;BMP180;53212;52.112;5.144;2023-08-17T04:54:18;102074.40;;;16.70
66403;BMP180;53212;52.112;5.144;2023-08-17T04:56:45;102076.00;;;16.66
66403;BMP180;53212;52.112;5.144;2023-08-17T04:59:10;102075.00;;;16.60
66403;BMP180;53212;52.112;5.144;2023-08-17T05:01:35;102071.60;;;16.66
66403;BMP180;53212;52.112;5.144;2023-08-17T05:04:03;102069.80;;;16.70
66403;BMP180;53212;52.112;5.144;2023-08-17T05:06:29;102064.60;;;16.70
66403;BMP180;53212;52.112;5.144;2023-08-17T05:08:56;102063.60;;;16.72
66403;BMP180;53212;52.112;5.144;2023-08-17T05:11:21;102061.60;;;16.80
66403;BMP180;53212;52.112;5.144;2023-08-17T05:13:47;102056.00;;;16.80
66403;BMP180;53212;52.112;5.144;2023-08-17T05:16:12;102060.00;;;16.90
66403;BMP180;53212;52.112;5.144;2023-08-17T05:18:37;102061.60;;;16.90
66403;BMP180;53212;52.112;5.144;2023-08-17T05:21:03;102063.60;;;16.90
66403;BMP180;53212;52.112;5.144;2023-08-17T05:23:28;102063.60;;;17.00
66403;BMP180;53212;52.112;5.144;2023-08-17T05:25:54;102066.00;;;17.00
66403;BMP180;53212;52.112;5.144;2023-08-17T05:28:20;102063.40;;;17.10
66403;BMP180;53212;52.112;5.144;2023-08-17T05:30:46;102061.20;;;17.10
66403;BMP180;53212;52.112;5.144;2023-08-17T05:33:11;102057.20;;;17.20
66403;BMP180;53212;52.112;5.144;2023-08-17T05:35:37;102055.40;;;17.20
66403;BMP180;53212;52.112;5.144;2023-08-17T05:38:03;102049.80;;;17.26
66403;BMP180;53212;52.112;5.144;2023-08-17T05:40:32;102055.60;;;17.30
66403;BMP180;53212;52.112;5.144;2023-08-17T05:42:58;102056.80;;;17.30
66403;BMP180;53212;52.112;5.144;2023-08-17T05:45:23;102056.80;;;17.30
66403;BMP180;53212;52.112;5.144;2023-08-17T05:47:48;102062.60;;;17.40
66403;BMP180;53212;52.112;5.144;2023-08-17T05:50:14;102063.80;;;17.44
66403;BMP180;53212;52.112;5.144;2023-08-17T05:52:41;102066.80;;;17.50
66403;BMP180;53212;52.112;5.144;2023-08-17T05:55:07;102065.40;;;17.50
66403;BMP180;53212;52.112;5.144;2023-08-17T05:57:32;102074.80;;;17.60
66403;BMP180;53212;52.112;5.144;2023-08-17T05:59:58;102075.40;;;17.60
66403;BMP180;53212;52.112;5.144;2023-08-17T06:02:23;102075.60;;;17.64
66403;BMP180;53212;52.112;5.144;2023-08-17T06:04:48;102076.00;;;17.70
66403;BMP180;53212;52.112;5.144;2023-08-17T06:07:14;102082.80;;;17.76
66403;BMP180;53212;52.112;5.144;2023-08-17T06:09:39;102079.20;;;17.90
66403;BMP180;53212;52.112;5.144;2023-08-17T06:12:05;102080.60;;;17.96
66403;BMP180;53212;52.112;5.144;2023-08-17T06:14:32;102082.60;;;18.02
66403;BMP180;53212;52.112;5.144;2023-08-17T06:16:58;102079.00;;;18.12
66403;BMP180;53212;52.112;5.144;2023-08-17T06:19:24;102076.60;;;18.20
66403;BMP180;53212;52.112;5.144;2023-08-17T06:21:49;102074.80;;;18.30
66403;BMP180;53212;52.112;5.144;2023-08-17T06:24:15;102074.60;;;18.38
66403;BMP180;53212;52.112;5.144;2023-08-17T06:26:40;102082.60;;;18.40
66403;BMP180;53212;52.112;5.144;2023-08-17T06:29:06;102083.60;;;18.40
66403;BMP180;53212;52.112;5.144;2023-08-17T06:31:33;102086.80;;;18.40
66403;BMP180;53212;52.112;5.144;2023-08-17T06:33:59;102088.80;;;18.50
66403;BMP180;53212;52.112;5.144;2023-08-17T06:36:24;102094.40;;;18.50
66403;BMP180;53212;52.112;5.144;2023-08-17T06:38:50;102092.20;;;18.54
66403;BMP180;53212;52.112;5.144;2023-08-17T06:41:16;102095.60;;;18.56
66403;BMP180;53212;52.112;5.144;2023-08-17T06:43:42;102092.60;;;18.52
66403;BMP180;53212;52.112;5.144;2023-08-17T06:46:07;102092.40;;;18.54
66403;BMP180;53212;52.112;5.144;2023-08-17T06:48:33;102095.20;;;18.60
66403;BMP180;53212;52.112;5.144;2023-08-17T06:50:58;102096.00;;;18.70
66403;BMP180;53212;52.112;5.144;2023-08-17T06:53:24;102097.60;;;18.80
66403;BMP180;53212;52.112;5.144;2023-08-17T06:55:49;102094.80;;;18.90
66403;BMP180;53212;52.112;5.144;2023-08-17T06:58:15;102099.80;;;18.90
66403;BMP180;53212;52.112;5.144;2023-08-17T07:00:40;102103.20;;;18.90
66403;BMP180;53212;52.112;5.144;2023-08-17T07:03:06;102097.20;;;18.96
66403;BMP180;53212;52.112;5.144;2023-08-17T07:05:32;102100.80;;;19.00
66403;BMP180;53212;52.112;5.144;2023-08-17T07:07:58;102101.00;;;19.10
66403;BMP180;53212;52.112;5.144;2023-08-17T07:10:25;102105.00;;;19.30
66403;BMP180;53212;52.112;5.144;2023-08-17T07:12:50;102103.60;;;19.60
66403;BMP180;53212;52.112;5.144;2023-08-17T07:15:16;102104.20;;;19.90
66403;BMP180;53212;52.112;5.144;2023-08-17T07:17:41;102101.80;;;20.10
66403;BMP180;53212;52.112;5.144;2023-08-17T07:20:08;102109.60;;;20.18
66403;BMP180;53212;52.112;5.144;2023-08-17T07:22:34;102106.80;;;20.20
66403;BMP180;53212;52.112;5.144;2023-08-17T07:25:00;102105.80;;;20.30
66403;BMP180;53212;52.112;5.144;2023-08-17T07:27:25;102107.20;;;20.32
66403;BMP180;53212;52.112;5.144;2023-08-17T07:29:51;102105.00;;;20.30
66403;BMP180;53212;52.112;5.144;2023-08-17T07:32:18;102100.40;;;20.40
66403;BMP180;53212;52.112;5.144;2023-08-17T07:34:44;102092.00;;;20.50
66403;BMP180;53212;52.112;5.144;2023-08-17T07:37:09;102096.00;;;20.52
66403;BMP180;53212;52.112;5.144;2023-08-17T07:39:35;102096.20;;;20.60
66403;BMP180;53212;52.112;5.144;2023-08-17T07:42:00;102100.60;;;20.70
66403;BMP180;53212;52.112;5.144;2023-08-17T07:44:26;102105.80;;;20.70
66403;BMP180;53212;52.112;5.144;2023-08-17T07:46:53;102104.40;;;20.62
66403;BMP180;53212;52.112;5.144;2023-08-17T07:49:18;102106.80;;;20.66
66403;BMP180;53212;52.112;5.144;2023-08-17T07:51:45;102105.00;;;20.68
66403;BMP180;53212;52.112;5.144;2023-08-17T07:54:11;102101.80;;;20.70
66403;BMP180;53212;52.112;5.144;2023-08-17T07:56:36;102100.40;;;20.88
66403;BMP180;53212;52.112;5.144;2023-08-17T07:59:02;102103.00;;;21.04
66403;BMP180;53212;52.112;5.144;2023-08-17T08:01:28;102100.60;;;21.20
66403;BMP180;53212;52.112;5.144;2023-08-17T08:03:53;102095.80;;;21.10
66403;BMP180;53212;52.112;5.144;2023-08-17T08:06:19;102101.20;;;21.06
66403;BMP180;53212;52.112;5.144;2023-08-17T08:08:46;102102.80;;;21.00
66403;BMP180;53212;52.112;5.144;2023-08-17T08:11:11;102100.20;;;20.90
66403;BMP180;53212;52.112;5.144;2023-08-17T08:13:37;102108.40;;;20.92
66403;BMP180;53212;52.112;5.144;2023-08-17T08:16:02;102105.40;;;21.08
66403;BMP180;53212;52.112;5.144;2023-08-17T08:18:28;102100.60;;;21.12
66403;BMP180;53212;52.112;5.144;2023-08-17T08:20:54;102093.60;;;21.24
66403;BMP180;53212;52.112;5.144;2023-08-17T08:23:19;102096.40;;;21.38
66403;BMP180;53212;52.112;5.144;2023-08-17T08:25:45;102089.40;;;21.30
66403;BMP180;53212;52.112;5.144;2023-08-17T08:28:10;102088.40;;;21.20
66403;BMP180;53212;52.112;5.144;2023-08-17T08:30:36;102086.80;;;21.10
66403;BMP180;53212;52.112;5.144;2023-08-17T08:33:02;102093.00;;;21.10
66403;BMP180;53212;52.112;5.144;2023-08-17T08:35:28;102097.20;;;21.10
66403;BMP180;53212;52.112;5.144;2023-08-17T08:37:54;102094.20;;;21.10
66403;BMP180;53212;52.112;5.144;2023-08-17T08:40:27;102093.80;;;21.00
66403;BMP180;53212;52.112;5.144;2023-08-17T08:42:53;102093.00;;;21.00
66403;BMP180;53212;52.112;5.144;2023-08-17T08:45:20;102081.20;;;21.00
66403;BMP180;53212;52.112;5.144;2023-08-17T08:47:46;102088.00;;;21.06
66403;BMP180;53212;52.112;5.144;2023-08-17T08:50:17;102087.80;;;21.16
66403;BMP180;53212;52.112;5.144;2023-08-17T08:52:50;102082.40;;;21.10
66403;BMP180;53212;52.112;5.144;2023-08-17T08:55:19;102084.20;;;21.10
66403;BMP180;53212;52.112;5.144;2023-08-17T08:57:46;102084.40;;;21.10
66403;BMP180;53212;52.112;5.144;2023-08-17T09:00:14;102082.00;;;21.30
66403;BMP180;53212;52.112;5.144;2023-08-17T09:02:42;102076.80;;;21.40
66403;BMP180;53212;52.112;5.144;2023-08-17T09:05:10;102076.40;;;21.40
66403;BMP180;53212;52.112;5.144;2023-08-17T09:07:37;102079.80;;;21.40
66403;BMP180;53212;52.112;5.144;2023-08-17T09:10:04;102077.60;;;21.40
66403;BMP180;53212;52.112;5.144;2023-08-17T09:12:30;102076.80;;;21.48
66403;BMP180;53212;52.112;5.144;2023-08-17T09:14:56;102072.80;;;21.52
66403;BMP180;53212;52.112;5.144;2023-08-17T09:17:26;102075.20;;;21.70
66403;BMP180;53212;52.112;5.144;2023-08-17T09:19:52;102073.80;;;21.90
66403;BMP180;53212;52.112;5.144;2023-08-17T09:22:24;102076.80;;;22.00
66403;BMP180;53212;52.112;5.144;2023-08-17T09:24:51;102073.20;;;22.20
66403;BMP180;53212;52.112;5.144;2023-08-17T09:27:17;102072.40;;;22.40
66403;BMP180;53212;52.112;5.144;2023-08-17T09:29:43;102067.00;;;22.64
66403;BMP180;53212;52.112;5.144;2023-08-17T09:32:11;102065.40;;;22.80
66403;BMP180;53212;52.112;5.144;2023-08-17T09:34:42;102062.60;;;22.80
66403;BMP180;53212;52.112;5.144;2023-08-17T09:37:08;102069.40;;;22.60
66403;BMP180;53212;52.112;5.144;2023-08-17T09:39:33;102062.80;;;22.40
66403;BMP180;53212;52.112;5.144;2023-08-17T09:41:59;102064.60;;;22.40
66403;BMP180;53212;52.112;5.144;2023-08-17T09:44:25;102056.20;;;22.40
66403;BMP180;53212;52.112;5.144;2023-08-17T09:46:51;102058.00;;;22.50
66403;BMP180;53212;52.112;5.144;2023-08-17T09:49:17;102053.40;;;22.60
66403;BMP180;53212;52.112;5.144;2023-08-17T09:51:44;102054.80;;;22.74
66403;BMP180;53212;52.112;5.144;2023-08-17T09:54:22;102063.20;;;23.00
66403;BMP180;53212;52.112;5.144;2023-08-17T09:56:52;102057.60;;;23.10
66403;BMP180;53212;52.112;5.144;2023-08-17T09:59:18;102051.80;;;23.24
66403;BMP180;53212;52.112;5.144;2023-08-17T10:01:47;102045.40;;;23.22
66403;BMP180;53212;52.112;5.144;2023-08-17T10:04:15;102043.40;;;23.28
66403;BMP180;53212;52.112;5.144;2023-08-17T10:06:43;102044.60;;;23.20
66403;BMP180;53212;52.112;5.144;2023-08-17T10:09:11;102043.80;;;23.30
66403;BMP180;53212;52.112;5.144;2023-08-17T10:11:39;102037.00;;;23.30
66403;BMP180;53212;52.112;5.144;2023-08-17T10:14:19;102038.80;;;23.46
66403;BMP180;53212;52.112;5.144;2023-08-17T10:17:01;102044.40;;;23.70
66403;BMP180;53212;52.112;5.144;2023-08-17T10:19:37;102036.80;;;23.94
66403;BMP180;53212;52.112;5.144;2023-08-17T10:22:17;102037.20;;;23.98
66403;BMP180;53212;52.112;5.144;2023-08-17T10:24:44;102035.00;;;24.00
66403;BMP180;53212;52.112;5.144;2023-08-17T10:27:10;102030.60;;;24.20
66403;BMP180;53212;52.112;5.144;2023-08-17T10:29:39;102036.00;;;24.20
66403;BMP180;53212;52.112;5.144;2023-08-17T10:32:06;102038.20;;;24.20
66403;BMP180;53212;52.112;5.144;2023-08-17T10:34:34;102032.40;;;24.20
66403;BMP180;53212;52.112;5.144;2023-08-17T10:37:00;102031.80;;;24.02
66403;BMP180;53212;52.112;5.144;2023-08-17T10:39:28;102040.40;;;23.94
66403;BMP180;53212;52.112;5.144;2023-08-17T10:41:55;102038.60;;;23.90
66403;BMP180;53212;52.112;5.144;2023-08-17T10:44:44;102043.60;;;23.90
66403;BMP180;53212;52.112;5.144;2023-08-17T10:47:24;102032.40;;;23.90
66403;BMP180;53212;52.112;5.144;2023-08-17T10:50:03;102041.20;;;23.90
66403;BMP180;53212;52.112;5.144;2023-08-17T10:52:31;102032.20;;;24.00
66403;BMP180;53212;52.112;5.144;2023-08-17T10:55:07;102037.40;;;24.10
66403;BMP180;53212;52.112;5.144;2023-08-17T10:57:39;102029.60;;;24.10
66403;BMP180;53212;52.112;5.144;2023-08-17T11:00:25;102033.40;;;24.10
66403;BMP180;53212;52.112;5.144;2023-08-17T11:08:35;102037.20;;;24.30
66403;BMP180;53212;52.112;5.144;2023-08-17T11:11:06;102039.40;;;24.20
66403;BMP180;53212;52.112;5.144;2023-08-17T11:13:35;102042.60;;;24.20
66403;BMP180;53212;52.112;5.144;2023-08-17T11:16:02;102044.00;;;24.10
66403;BMP180;53212;52.112;5.144;2023-08-17T11:18:28;102045.40;;;24.00
66403;BMP180;53212;52.112;5.144;2023-08-17T11:20:54;102039.40;;;23.90
66403;BMP180;53212;52.112;5.144;2023-08-17T11:23:22;102039.20;;;24.10
66403;BMP180;53212;52.112;5.144;2023-08-17T11:25:49;102031.60;;;24.20
66403;BMP180;53212;52.112;5.144;2023-08-17T11:28:16;102028.40;;;24.40
66403;BMP180;53212;52.112;5.144;2023-08-17T11:30:42;102028.60;;;24.50
66403;BMP180;53212;52.112;5.144;2023-08-17T11:33:09;102032.20;;;24.40
66403;BMP180;53212;52.112;5.144;2023-08-17T11:35:38;102031.20;;;24.40
66403;BMP180;53212;52.112;5.144;2023-08-17T11:38:05;102032.20;;;24.40
66403;BMP180;53212;52.112;5.144;2023-08-17T11:40:31;102027.40;;;24.40
66403;BMP180;53212;52.112;5.144;2023-08-17T11:42:57;102029.00;;;24.34
66403;BMP180;53212;52.112;5.144;2023-08-17T11:45:23;102032.60;;;24.30
66403;BMP180;53212;52.112;5.144;2023-08-17T11:47:48;102038.20;;;24.30
66403;BMP180;53212;52.112;5.144;2023-08-17T11:50:14;102037.60;;;24.40
66403;BMP180;53212;52.112;5.144;2023-08-17T11:52:40;102035.60;;;24.50
66403;BMP180;53212;52.112;5.144;2023-08-17T11:55:08;102031.20;;;24.46
66403;BMP180;53212;52.112;5.144;2023-08-17T11:57:36;102026.00;;;24.50
66403;BMP180;53212;52.112;5.144;2023-08-17T12:00:03;102027.00;;;24.50
66403;BMP180;53212;52.112;5.144;2023-08-17T12:02:31;102028.00;;;24.50
66403;BMP180;53212;52.112;5.144;2023-08-17T12:05:03;102032.20;;;24.40
66403;BMP180;53212;52.112;5.144;2023-08-17T12:07:32;102032.00;;;24.30
66403;BMP180;53212;52.112;5.144;2023-08-17T12:09:57;102031.80;;;24.20
66403;BMP180;53212;52.112;5.144;2023-08-17T12:12:23;102027.00;;;24.10
66403;BMP180;53212;52.112;5.144;2023-08-17T12:14:49;102027.00;;;24.10
66403;BMP180;53212;52.112;5.144;2023-08-17T12:17:19;102028.00;;;24.20
66403;BMP180;53212;52.112;5.144;2023-08-17T12:19:49;102024.20;;;24.30
66403;BMP180;53212;52.112;5.144;2023-08-17T12:22:16;102016.60;;;24.40
66403;BMP180;53212;52.112;5.144;2023-08-17T12:24:42;102018.40;;;24.50
66403;BMP180;53212;52.112;5.144;2023-08-17T12:27:09;102020.60;;;24.50
66403;BMP180;53212;52.112;5.144;2023-08-17T12:29:49;102016.00;;;24.50
66403;BMP180;53212;52.112;5.144;2023-08-17T12:32:18;102011.80;;;24.60
66403;BMP180;53212;52.112;5.144;2023-08-17T12:34:44;102011.20;;;24.50
66403;BMP180;53212;52.112;5.144;2023-08-17T12:37:11;102012.00;;;24.60
66403;BMP180;53212;52.112;5.144;2023-08-17T12:39:37;102010.00;;;24.60
66403;BMP180;53212;52.112;5.144;2023-08-17T12:42:06;102013.40;;;24.60
66403;BMP180;53212;52.112;5.144;2023-08-17T12:44:31;102014.60;;;24.60
66403;BMP180;53212;52.112;5.144;2023-08-17T12:46:57;102018.40;;;24.60
66403;BMP180;53212;52.112;5.144;2023-08-17T12:49:25;102017.60;;;24.50
66403;BMP180;53212;52.112;5.144;2023-08-17T12:51:51;102026.20;;;24.38
66403;BMP180;53212;52.112;5.144;2023-08-17T12:54:17;102025.80;;;24.10
66403;BMP180;53212;52.112;5.144;2023-08-17T12:56:44;102030.00;;;23.90
66403;BMP180;53212;52.112;5.144;2023-08-17T12:59:10;102026.00;;;23.70
66403;BMP180;53212;52.112;5.144;2023-08-17T13:01:36;102026.00;;;23.60
66403;BMP180;53212;52.112;5.144;2023-08-17T13:04:01;102023.00;;;23.60
66403;BMP180;53212;52.112;5.144;2023-08-17T13:06:27;102024.40;;;23.70
66403;BMP180;53212;52.112;5.144;2023-08-17T13:08:54;102023.40;;;23.70
66403;BMP180;53212;52.112;5.144;2023-08-17T13:11:20;102018.20;;;23.70
66403;BMP180;53212;52.112;5.144;2023-08-17T13:13:45;102024.60;;;23.70
66403;BMP180;53212;52.112;5.144;2023-08-17T13:16:11;102025.20;;;23.54
66403;BMP180;53212;52.112;5.144;2023-08-17T13:18:37;102024.60;;;23.50
66403;BMP180;53212;52.112;5.144;2023-08-17T13:21:03;102022.80;;;23.40
66403;BMP180;53212;52.112;5.144;2023-08-17T13:23:29;102023.80;;;23.30
66403;BMP180;53212;52.112;5.144;2023-08-17T13:25:54;102018.20;;;23.30
66403;BMP180;53212;52.112;5.144;2023-08-17T13:28:20;102024.00;;;23.30
66403;BMP180;53212;52.112;5.144;2023-08-17T13:30:46;102028.80;;;23.30
66403;BMP180;53212;52.112;5.144;2023-08-17T13:33:12;102019.00;;;23.30
66403;BMP180;53212;52.112;5.144;2023-08-17T13:35:38;102022.00;;;23.18
66403;BMP180;53212;52.112;5.144;2023-08-17T13:38:04;102022.60;;;23.00
66403;BMP180;53212;52.112;5.144;2023-08-17T13:40:33;102020.00;;;22.98
66403;BMP180;53212;52.112;5.144;2023-08-17T13:42:59;102016.80;;;23.00
66403;BMP180;53212;52.112;5.144;2023-08-17T13:45:26;102023.00;;;23.00
66403;BMP180;53212;52.112;5.144;2023-08-17T13:47:52;102023.40;;;23.00
66403;BMP180;53212;52.112;5.144;2023-08-17T13:50:18;102022.00;;;23.00
66403;BMP180;53212;52.112;5.144;2023-08-17T13:52:44;102017.20;;;23.10
66403;BMP180;53212;52.112;5.144;2023-08-17T13:55:10;102012.40;;;23.20
66403;BMP180;53212;52.112;5.144;2023-08-17T13:57:36;102006.60;;;23.30
66403;BMP180;53212;52.112;5.144;2023-08-17T14:00:02;102006.00;;;23.40
66403;BMP180;53212;52.112;5.144;2023-08-17T14:02:30;102001.40;;;23.50